sensor_id;sensor_type;location;lat;lon;timestamp;P1;durP1;ratioP1;P2;durP2;ratioP2
75645;SDS011;64237;52.438;13.240;2023-07-22T00:02:16;9.10;;;3.53;;
75645;SDS011;64237;52.438;13.240;2023-07-22T00:04:41;8.40;;;3.70;;
75645;SDS011;64237;52.438;13.240;2023-07-22T00:07:07;6.63;;;3.47;;
75645;SDS011;64237;52.438;13.240;2023-07-22T00:09:32;7.03;;;3.50;;
75645;SDS011;64237;52.438;13.240;2023-07-22T00:12:01;7.55;;;3.55;;
75645;SDS011;64237;52.438;13.240;2023-07-22T00:14:27;6.43;;;3.33;;
75645;SDS011;64237;52.438;13.240;2023-07-22T00:16:52;7.07;;;3.33;;
75645;SDS011;64237;52.438;13.240;2023-07-22T00:19:17;5.75;;;3.17;;
75645;SDS011;64237;52.438;13.240;2023-07-22T00:21:43;7.68;;;3.85;;
75645;SDS011;64237;52.438;13.240;2023-07-22T00:24:08;8.73;;;3.63;;
75645;SDS011;64237;52.438;13.240;2023-07-22T00:26:35;7.72;;;3.50;;
75645;SDS011;64237;52.438;13.240;2023-07-22T00:29:01;8.48;;;4.07;;
75645;SDS011;64237;52.438;13.240;2023-07-22T00:31:27;6.18;;;3.60;;
75645;SDS011;64237;52.438;13.240;2023-07-22T00:33:53;6.90;;;3.90;;
75645;SDS011;64237;52.438;13.240;2023-07-22T00:36:18;7.57;;;3.90;;
75645;SDS011;64237;52.438;13.240;2023-07-22T00:38:43;8.65;;;3.80;;
75645;SDS011;64237;52.438;13.240;2023-07-22T00:41:10;7.55;;;3.90;;
75645;SDS011;64237;52.438;13.240;2023-07-22T00:43:36;6.85;;;3.70;;
75645;SDS011;64237;52.438;13.240;2023-07-22T00:46:01;6.55;;;3.80;;
75645;SDS011;64237;52.438;13.240;2023-07-22T00:48:27;8.13;;;3.63;;
75645;SDS011;64237;52.438;13.240;2023-07-22T00:50:52;7.22;;;3.78;;
75645;SDS011;64237;52.438;13.240;2023-07-22T00:53:18;7.45;;;4.03;;
75645;SDS011;64237;52.438;13.240;2023-07-22T00:55:44;6.78;;;3.78;;
75645;SDS011;64237;52.438;13.240;2023-07-22T00:58:10;8.02;;;4.30;;
75645;SDS011;64237;52.438;13.240;2023-07-22T01:00:36;6.85;;;3.97;;
75645;SDS011;64237;52.438;13.240;2023-07-22T01:03:01;9.60;;;4.50;;
75645;SDS011;64237;52.438;13.240;2023-07-22T01:05:28;8.25;;;4.43;;
75645;SDS011;64237;52.438;13.240;2023-07-22T01:07:55;8.52;;;4.82;;
75645;SDS011;64237;52.438;13.240;2023-07-22T01:10:21;9.38;;;4.25;;
75645;SDS011;64237;52.438;13.240;2023-07-22T01:12:47;8.05;;;4.30;;
75645;SDS011;64237;52.438;13.240;2023-07-22T01:15:12;9.57;;;4.50;;
75645;SDS011;64237;52.438;13.240;2023-07-22T01:17:38;7.90;;;3.80;;
75645;SDS011;64237;52.438;13.240;2023-07-22T01:20:05;9.77;;;4.63;;
75645;SDS011;64237;52.438;13.240;2023-07-22T01:22:30;7.53;;;4.07;;
75645;SDS011;64237;52.438;13.240;2023-07-22T01:24:57;8.48;;;4.63;;
75645;SDS011;64237;52.438;13.240;2023-07-22T01:27:23;7.95;;;4.60;;
75645;SDS011;64237;52.438;13.240;2023-07-22T01:29:52;8.48;;;4.45;;
75645;SDS011;64237;52.438;13.240;2023-07-22T01:32:18;8.93;;;4.65;;
75645;SDS011;64237;52.438;13.240;2023-07-22T01:34:45;9.45;;;4.88;;
75645;SDS011;64237;52.438;13.240;2023-07-22T01:37:10;11.60;;;5.13;;
75645;SDS011;64237;52.438;13.240;2023-07-22T01:39:36;9.27;;;4.57;;
75645;SDS011;64237;52.438;13.240;2023-07-22T01:42:01;9.63;;;4.95;;
75645;SDS011;64237;52.438;13.240;2023-07-22T01:44:27;8.55;;;4.70;;
75645;SDS011;64237;52.438;13.240;2023-07-22T01:46:53;9.50;;;4.57;;
75645;SDS011;64237;52.438;13.240;2023-07-22T01:49:18;13.60;;;5.38;;
75645;SDS011;64237;52.438;13.240;2023-07-22T01:51:44;8.25;;;4.95;;
75645;SDS011;64237;52.438;13.240;2023-07-22T01:54:10;7.53;;;4.60;;
75645;SDS011;64237;52.438;13.240;2023-07-22T01:56:37;8.32;;;4.88;;
75645;SDS011;64237;52.438;13.240;2023-07-22T01:59:03;8.45;;;4.72;;
75645;SDS011;64237;52.438;13.240;2023-07-22T02:01:29;12.93;;;5.78;;
75645;SDS011;64237;52.438;13.240;2023-07-22T02:03:54;9.48;;;5.05;;
75645;SDS011;64237;52.438;13.240;2023-07-22T02:06:20;10.77;;;5.30;;
75645;SDS011;64237;52.438;13.240;2023-07-22T02:08:45;8.82;;;5.40;;
75645;SDS011;64237;52.438;13.240;2023-07-22T02:11:11;9.57;;;5.45;;
75645;SDS011;64237;52.438;13.240;2023-07-22T02:13:37;9.02;;;5.20;;
75645;SDS011;64237;52.438;13.240;2023-07-22T02:16:02;9.82;;;5.10;;
75645;SDS011;64237;52.438;13.240;2023-07-22T02:18:28;8.60;;;5.13;;
75645;SDS011;64237;52.438;13.240;2023-07-22T02:20:54;11.15;;;5.38;;
75645;SDS011;64237;52.438;13.240;2023-07-22T02:23:21;9.95;;;5.13;;
75645;SDS011;64237;52.438;13.240;2023-07-22T02:25:52;9.30;;;5.22;;
75645;SDS011;64237;52.438;13.240;2023-07-22T02:28:19;9.20;;;5.45;;
75645;SDS011;64237;52.438;13.240;2023-07-22T02:30:49;10.45;;;5.15;;
75645;SDS011;64237;52.438;13.240;2023-07-22T02:33:17;10.82;;;5.32;;
75645;SDS011;64237;52.438;13.240;2023-07-22T02:35:43;9.10;;;4.90;;
75645;SDS011;64237;52.438;13.240;2023-07-22T02:38:09;8.05;;;4.80;;
75645;SDS011;64237;52.438;13.240;2023-07-22T02:40:35;9.57;;;4.65;;
75645;SDS011;64237;52.438;13.240;2023-07-22T02:43:01;9.25;;;4.93;;
75645;SDS011;64237;52.438;13.240;2023-07-22T02:45:26;9.98;;;4.75;;
75645;SDS011;64237;52.438;13.240;2023-07-22T02:47:51;10.60;;;4.25;;
75645;SDS011;64237;52.438;13.240;2023-07-22T02:50:17;8.07;;;4.15;;
75645;SDS011;64237;52.438;13.240;2023-07-22T02:52:43;7.47;;;4.38;;
75645;SDS011;64237;52.438;13.240;2023-07-22T02:55:09;7.32;;;4.40;;
75645;SDS011;64237;52.438;13.240;2023-07-22T02:57:36;9.10;;;4.38;;
75645;SDS011;64237;52.438;13.240;2023-07-22T03:00:03;7.32;;;4.22;;
75645;SDS011;64237;52.438;13.240;2023-07-22T03:02:35;8.30;;;4.78;;
75645;SDS011;64237;52.438;13.240;2023-07-22T03:05:01;7.63;;;4.05;;
75645;SDS011;64237;52.438;13.240;2023-07-22T03:07:31;8.57;;;4.20;;
75645;SDS011;64237;52.438;13.240;2023-07-22T03:09:56;8.05;;;4.10;;
75645;SDS011;64237;52.438;13.240;2023-07-22T03:12:22;7.35;;;4.20;;
75645;SDS011;64237;52.438;13.240;2023-07-22T03:14:47;10.13;;;5.05;;
75645;SDS011;64237;52.438;13.240;2023-07-22T03:17:14;9.70;;;3.90;;
75645;SDS011;64237;52.438;13.240;2023-07-22T03:19:41;7.25;;;3.90;;
75645;SDS011;64237;52.438;13.240;2023-07-22T03:22:08;9.18;;;4.15;;
75645;SDS011;64237;52.438;13.240;2023-07-22T03:24:35;7.40;;;3.78;;
75645;SDS011;64237;52.438;13.240;2023-07-22T03:27:00;7.57;;;3.95;;
75645;SDS011;64237;52.438;13.240;2023-07-22T03:29:28;6.90;;;3.67;;
75645;SDS011;64237;52.438;13.240;2023-07-22T03:31:54;8.35;;;3.70;;
75645;SDS011;64237;52.438;13.240;2023-07-22T03:34:19;8.13;;;3.60;;
75645;SDS011;64237;52.438;13.240;2023-07-22T03:36:44;9.43;;;3.67;;
75645;SDS011;64237;52.438;13.240;2023-07-22T03:39:11;7.60;;;3.53;;
75645;SDS011;64237;52.438;13.240;2023-07-22T03:41:36;6.65;;;3.47;;
75645;SDS011;64237;52.438;13.240;2023-07-22T03:44:02;7.03;;;3.47;;
75645;SDS011;64237;52.438;13.240;2023-07-22T03:46:27;7.10;;;3.05;;
75645;SDS011;64237;52.438;13.240;2023-07-22T03:48:53;6.57;;;3.15;;
75645;SDS011;64237;52.438;13.240;2023-07-22T03:51:19;6.80;;;3.45;;
75645;SDS011;64237;52.438;13.240;2023-07-22T03:53:44;5.70;;;3.10;;
75645;SDS011;64237;52.438;13.240;2023-07-22T03:56:09;5.95;;;3.00;;
75645;SDS011;64237;52.438;13.240;2023-07-22T03:58:35;7.93;;;3.00;;
75645;SDS011;64237;52.438;13.240;2023-07-22T04:01:00;5.82;;;2.83;;
75645;SDS011;64237;52.438;13.240;2023-07-22T04:03:25;5.80;;;2.85;;
75645;SDS011;64237;52.438;13.240;2023-07-22T04:05:54;6.77;;;2.80;;
75645;SDS011;64237;52.438;13.240;2023-07-22T04:08:20;6.78;;;2.90;;
75645;SDS011;64237;52.438;13.240;2023-07-22T04:10:52;6.22;;;2.95;;
75645;SDS011;64237;52.438;13.240;2023-07-22T04:13:18;7.32;;;2.70;;
75645;SDS011;64237;52.438;13.240;2023-07-22T04:15:44;5.70;;;2.70;;
75645;SDS011;64237;52.438;13.240;2023-07-22T04:18:09;6.65;;;2.85;;
75645;SDS011;64237;52.438;13.240;2023-07-22T04:20:35;6.35;;;2.67;;
75645;SDS011;64237;52.438;13.240;2023-07-22T04:23:00;6.93;;;3.00;;
75645;SDS011;64237;52.438;13.240;2023-07-22T04:25:25;5.55;;;2.72;;
75645;SDS011;64237;52.438;13.240;2023-07-22T04:27:51;6.43;;;3.27;;
75645;SDS011;64237;52.438;13.240;2023-07-22T04:30:16;7.47;;;3.20;;
75645;SDS011;64237;52.438;13.240;2023-07-22T04:32:46;9.18;;;3.03;;
75645;SDS011;64237;52.438;13.240;2023-07-22T04:35:13;7.93;;;3.40;;
75645;SDS011;64237;52.438;13.240;2023-07-22T04:37:39;6.95;;;3.05;;
75645;SDS011;64237;52.438;13.240;2023-07-22T04:40:04;7.27;;;3.20;;
75645;SDS011;64237;52.438;13.240;2023-07-22T04:42:32;7.22;;;3.38;;
75645;SDS011;64237;52.438;13.240;2023-07-22T04:44:57;8.20;;;3.47;;
75645;SDS011;64237;52.438;13.240;2023-07-22T04:47:22;7.07;;;3.30;;
75645;SDS011;64237;52.438;13.240;2023-07-22T04:49:48;8.18;;;4.05;;
75645;SDS011;64237;52.438;13.240;2023-07-22T04:52:13;8.17;;;4.37;;
75645;SDS011;64237;52.438;13.240;2023-07-22T04:54:38;7.22;;;3.60;;
75645;SDS011;64237;52.438;13.240;2023-07-22T04:57:04;8.38;;;4.03;;
75645;SDS011;64237;52.438;13.240;2023-07-22T04:59:29;7.60;;;4.20;;
75645;SDS011;64237;52.438;13.240;2023-07-22T05:01:56;9.07;;;4.20;;
75645;SDS011;64237;52.438;13.240;2023-07-22T05:04:21;11.52;;;4.55;;
75645;SDS011;64237;52.438;13.240;2023-07-22T05:06:47;8.68;;;4.30;;
75645;SDS011;64237;52.438;13.240;2023-07-22T05:09:12;11.30;;;4.50;;
75645;SDS011;64237;52.438;13.240;2023-07-22T05:11:37;9.40;;;4.63;;
75645;SDS011;64237;52.438;13.240;2023-07-22T05:14:03;13.98;;;5.13;;
75645;SDS011;64237;52.438;13.240;2023-07-22T05:16:28;10.93;;;4.60;;
75645;SDS011;64237;52.438;13.240;2023-07-22T05:18:53;10.63;;;5.10;;
75645;SDS011;64237;52.438;13.240;2023-07-22T05:21:19;10.82;;;5.18;;
75645;SDS011;64237;52.438;13.240;2023-07-22T05:23:44;10.13;;;4.88;;
75645;SDS011;64237;52.438;13.240;2023-07-22T05:26:09;11.15;;;5.45;;
75645;SDS011;64237;52.438;13.240;2023-07-22T05:28:35;11.88;;;5.18;;
75645;SDS011;64237;52.438;13.240;2023-07-22T05:31:00;12.32;;;5.50;;
75645;SDS011;64237;52.438;13.240;2023-07-22T05:33:26;11.20;;;5.25;;
75645;SDS011;64237;52.438;13.240;2023-07-22T05:35:51;14.65;;;5.88;;
75645;SDS011;64237;52.438;13.240;2023-07-22T05:38:16;11.75;;;4.78;;
75645;SDS011;64237;52.438;13.240;2023-07-22T05:40:42;10.95;;;5.90;;
75645;SDS011;64237;52.438;13.240;2023-07-22T05:43:08;10.88;;;5.22;;
75645;SDS011;64237;52.438;13.240;2023-07-22T05:45:33;11.32;;;5.35;;
75645;SDS011;64237;52.438;13.240;2023-07-22T05:47:58;13.43;;;5.40;;
75645;SDS011;64237;52.438;13.240;2023-07-22T05:50:24;12.60;;;5.57;;
75645;SDS011;64237;52.438;13.240;2023-07-22T05:52:50;13.82;;;5.45;;
75645;SDS011;64237;52.438;13.240;2023-07-22T05:55:15;12.25;;;5.03;;
75645;SDS011;64237;52.438;13.240;2023-07-22T05:57:41;11.02;;;5.13;;
75645;SDS011;64237;52.438;13.240;2023-07-22T06:00:07;12.15;;;5.38;;
75645;SDS011;64237;52.438;13.240;2023-07-22T06:02:34;14.02;;;5.25;;
75645;SDS011;64237;52.438;13.240;2023-07-22T06:04:59;12.88;;;5.10;;
75645;SDS011;64237;52.438;13.240;2023-07-22T06:07:24;10.13;;;4.40;;
75645;SDS011;64237;52.438;13.240;2023-07-22T06:09:50;11.23;;;4.20;;
75645;SDS011;64237;52.438;13.240;2023-07-22T06:12:15;10.65;;;4.90;;
75645;SDS011;64237;52.438;13.240;2023-07-22T06:14:41;12.20;;;5.55;;
75645;SDS011;64237;52.438;13.240;2023-07-22T06:17:06;15.25;;;5.13;;
75645;SDS011;64237;52.438;13.240;2023-07-22T06:19:32;11.68;;;5.05;;
75645;SDS011;64237;52.438;13.240;2023-07-22T06:21:58;20.85;;;4.38;;
75645;SDS011;64237;52.438;13.240;2023-07-22T06:24:23;10.80;;;4.38;;
75645;SDS011;64237;52.438;13.240;2023-07-22T06:26:49;10.68;;;3.97;;
75645;SDS011;64237;52.438;13.240;2023-07-22T06:29:14;13.55;;;4.07;;
75645;SDS011;64237;52.438;13.240;2023-07-22T06:31:39;9.38;;;4.00;;
75645;SDS011;64237;52.438;13.240;2023-07-22T06:34:05;11.82;;;4.13;;
75645;SDS011;64237;52.438;13.240;2023-07-22T06:36:30;9.02;;;3.63;;
75645;SDS011;64237;52.438;13.240;2023-07-22T06:38:56;8.55;;;3.47;;
75645;SDS011;64237;52.438;13.240;2023-07-22T06:41:23;9.88;;;4.43;;
75645;SDS011;64237;52.438;13.240;2023-07-22T06:43:49;8.35;;;3.33;;
75645;SDS011;64237;52.438;13.240;2023-07-22T06:46:15;6.47;;;3.25;;
75645;SDS011;64237;52.438;13.240;2023-07-22T06:48:41;7.00;;;2.88;;
75645;SDS011;64237;52.438;13.240;2023-07-22T06:51:06;9.98;;;3.72;;
75645;SDS011;64237;52.438;13.240;2023-07-22T06:53:32;11.15;;;3.80;;
75645;SDS011;64237;52.438;13.240;2023-07-22T06:55:58;11.77;;;3.70;;
75645;SDS011;64237;52.438;13.240;2023-07-22T06:58:23;9.15;;;3.00;;
75645;SDS011;64237;52.438;13.240;2023-07-22T07:00:52;8.38;;;3.40;;
75645;SDS011;64237;52.438;13.240;2023-07-22T07:03:18;9.63;;;3.45;;
75645;SDS011;64237;52.438;13.240;2023-07-22T07:05:44;7.60;;;2.67;;
75645;SDS011;64237;52.438;13.240;2023-07-22T07:08:16;8.27;;;3.25;;
75645;SDS011;64237;52.438;13.240;2023-07-22T07:10:41;7.60;;;2.97;;
75645;SDS011;64237;52.438;13.240;2023-07-22T07:13:06;8.77;;;3.45;;
75645;SDS011;64237;52.438;13.240;2023-07-22T07:15:32;10.50;;;3.13;;
75645;SDS011;64237;52.438;13.240;2023-07-22T07:17:57;7.78;;;3.05;;
75645;SDS011;64237;52.438;13.240;2023-07-22T07:20:23;7.97;;;2.67;;
75645;SDS011;64237;52.438;13.240;2023-07-22T07:22:48;9.32;;;2.92;;
75645;SDS011;64237;52.438;13.240;2023-07-22T07:25:13;7.75;;;2.92;;
75645;SDS011;64237;52.438;13.240;2023-07-22T07:27:40;9.27;;;3.33;;
75645;SDS011;64237;52.438;13.240;2023-07-22T07:30:06;8.43;;;2.92;;
75645;SDS011;64237;52.438;13.240;2023-07-22T07:32:33;7.13;;;3.35;;
75645;SDS011;64237;52.438;13.240;2023-07-22T07:34:58;8.52;;;3.40;;
75645;SDS011;64237;52.438;13.240;2023-07-22T07:37:23;7.13;;;2.72;;
75645;SDS011;64237;52.438;13.240;2023-07-22T07:39:49;9.00;;;3.00;;
75645;SDS011;64237;52.438;13.240;2023-07-22T07:42:14;9.20;;;2.97;;
75645;SDS011;64237;52.438;13.240;2023-07-22T07:44:39;9.73;;;3.37;;
75645;SDS011;64237;52.438;13.240;2023-07-22T07:47:05;9.82;;;3.20;;
75645;SDS011;64237;52.438;13.240;2023-07-22T07:49:30;7.70;;;2.75;;
75645;SDS011;64237;52.438;13.240;2023-07-22T07:51:55;9.00;;;3.17;;
75645;SDS011;64237;52.438;13.240;2023-07-22T07:54:21;11.38;;;4.10;;
75645;SDS011;64237;52.438;13.240;2023-07-22T07:56:46;7.90;;;2.90;;
75645;SDS011;64237;52.438;13.240;2023-07-22T07:59:11;9.00;;;2.83;;
75645;SDS011;64237;52.438;13.240;2023-07-22T08:01:37;8.05;;;3.20;;
75645;SDS011;64237;52.438;13.240;2023-07-22T08:04:06;7.03;;;3.28;;
75645;SDS011;64237;52.438;13.240;2023-07-22T08:06:35;7.47;;;3.40;;
75645;SDS011;64237;52.438;13.240;2023-07-22T08:09:02;9.25;;;3.17;;
75645;SDS011;64237;52.438;13.240;2023-07-22T08:11:30;10.88;;;3.10;;
75645;SDS011;64237;52.438;13.240;2023-07-22T08:13:55;8.18;;;3.20;;
75645;SDS011;64237;52.438;13.240;2023-07-22T08:16:21;6.50;;;2.65;;
75645;SDS011;64237;52.438;13.240;2023-07-22T08:18:46;9.65;;;2.70;;
75645;SDS011;64237;52.438;13.240;2023-07-22T08:21:12;7.68;;;3.10;;
75645;SDS011;64237;52.438;13.240;2023-07-22T08:23:37;8.05;;;3.10;;
75645;SDS011;64237;52.438;13.240;2023-07-22T08:26:03;8.00;;;2.92;;
75645;SDS011;64237;52.438;13.240;2023-07-22T08:28:30;7.25;;;2.88;;
75645;SDS011;64237;52.438;13.240;2023-07-22T08:30:57;6.22;;;2.60;;
75645;SDS011;64237;52.438;13.240;2023-07-22T08:33:23;8.13;;;3.40;;
75645;SDS011;64237;52.438;13.240;2023-07-22T08:35:50;8.02;;;3.10;;
75645;SDS011;64237;52.438;13.240;2023-07-22T08:38:16;6.32;;;2.50;;
75645;SDS011;64237;52.438;13.240;2023-07-22T08:40:43;8.50;;;2.70;;
75645;SDS011;64237;52.438;13.240;2023-07-22T08:43:10;5.88;;;2.70;;
75645;SDS011;64237;52.438;13.240;2023-07-22T08:45:37;7.45;;;2.72;;
75645;SDS011;64237;52.438;13.240;2023-07-22T08:48:03;6.03;;;2.33;;
75645;SDS011;64237;52.438;13.240;2023-07-22T08:50:33;6.40;;;2.70;;
75645;SDS011;64237;52.438;13.240;2023-07-22T08:53:06;5.53;;;2.58;;
75645;SDS011;64237;52.438;13.240;2023-07-22T08:55:32;8.38;;;2.90;;
75645;SDS011;64237;52.438;13.240;2023-07-22T08:57:57;7.28;;;2.88;;
75645;SDS011;64237;52.438;13.240;2023-07-22T09:00:23;6.90;;;2.63;;
75645;SDS011;64237;52.438;13.240;2023-07-22T09:02:49;6.35;;;2.67;;
75645;SDS011;64237;52.438;13.240;2023-07-22T09:05:16;6.65;;;2.78;;
75645;SDS011;64237;52.438;13.240;2023-07-22T09:07:42;7.85;;;2.60;;
75645;SDS011;64237;52.438;13.240;2023-07-22T09:10:08;6.70;;;2.70;;
75645;SDS011;64237;52.438;13.240;2023-07-22T09:12:35;7.70;;;3.00;;
75645;SDS011;64237;52.438;13.240;2023-07-22T09:15:12;7.75;;;2.80;;
75645;SDS011;64237;52.438;13.240;2023-07-22T09:17:40;6.13;;;2.25;;
75645;SDS011;64237;52.438;13.240;2023-07-22T09:22:32;9.32;;;2.40;;
75645;SDS011;64237;52.438;13.240;2023-07-22T09:25:19;5.25;;;2.28;;
75645;SDS011;64237;52.438;13.240;2023-07-22T09:27:54;7.20;;;2.50;;
75645;SDS011;64237;52.438;13.240;2023-07-22T09:33:05;5.25;;;2.33;;
75645;SDS011;64237;52.438;13.240;2023-07-22T09:35:45;6.07;;;2.55;;
75645;SDS011;64237;52.438;13.240;2023-07-22T09:38:12;6.88;;;2.65;;
75645;SDS011;64237;52.438;13.240;2023-07-22T09:40:39;6.38;;;2.38;;
75645;SDS011;64237;52.438;13.240;2023-07-22T09:43:06;8.50;;;2.60;;
75645;SDS011;64237;52.438;13.240;2023-07-22T09:45:34;5.88;;;2.30;;
75645;SDS011;64237;52.438;13.240;2023-07-22T09:48:00;8.50;;;2.45;;
75645;SDS011;64237;52.438;13.240;2023-07-22T09:50:26;6.40;;;2.20;;
75645;SDS011;64237;52.438;13.240;2023-07-22T09:52:56;6.07;;;2.40;;
75645;SDS011;64237;52.438;13.240;2023-07-22T09:55:25;7.32;;;2.80;;
75645;SDS011;64237;52.438;13.240;2023-07-22T09:57:57;5.28;;;2.30;;
75645;SDS011;64237;52.438;13.240;2023-07-22T10:00:29;6.57;;;2.38;;
75645;SDS011;64237;52.438;13.240;2023-07-22T10:02:59;8.10;;;2.60;;
75645;SDS011;64237;52.438;13.240;2023-07-22T10:05:26;5.55;;;2.50;;
75645;SDS011;64237;52.438;13.240;2023-07-22T10:07:56;6.50;;;2.50;;
75645;SDS011;64237;52.438;13.240;2023-07-22T10:10:23;6.13;;;2.65;;
75645;SDS011;64237;52.438;13.240;2023-07-22T10:12:52;5.80;;;2.40;;
75645;SDS011;64237;52.438;13.240;2023-07-22T10:15:18;6.63;;;2.53;;
75645;SDS011;64237;52.438;13.240;2023-07-22T10:17:44;7.32;;;2.60;;
75645;SDS011;64237;52.438;13.240;2023-07-22T10:20:12;6.60;;;2.20;;
75645;SDS011;64237;52.438;13.240;2023-07-22T10:22:42;5.75;;;2.17;;
75645;SDS011;64237;52.438;13.240;2023-07-22T10:25:09;6.80;;;2.42;;
75645;SDS011;64237;52.438;13.240;2023-07-22T10:27:36;5.70;;;2.80;;
75645;SDS011;64237;52.438;13.240;2023-07-22T10:30:04;7.10;;;2.70;;
75645;SDS011;64237;52.438;13.240;2023-07-22T10:32:34;7.18;;;2.63;;
75645;SDS011;64237;52.438;13.240;2023-07-22T10:35:01;6.93;;;2.70;;
75645;SDS011;64237;52.438;13.240;2023-07-22T10:37:31;7.20;;;2.75;;
75645;SDS011;64237;52.438;13.240;2023-07-22T10:40:44;5.40;;;2.42;;
75645;SDS011;64237;52.438;13.240;2023-07-22T10:42:53;6.63;;;2.70;;
75645;SDS011;64237;52.438;13.240;2023-07-22T10:45:49;7.28;;;2.78;;
75645;SDS011;64237;52.438;13.240;2023-07-22T10:48:16;7.88;;;2.60;;
75645;SDS011;64237;52.438;13.240;2023-07-22T10:53:20;6.43;;;2.80;;
75645;SDS011;64237;52.438;13.240;2023-07-22T10:56:28;6.05;;;2.60;;
75645;SDS011;64237;52.438;13.240;2023-07-22T11:12:13;6.20;;;2.55;;
75645;SDS011;64237;52.438;13.240;2023-07-22T11:14:51;8.02;;;3.13;;
75645;SDS011;64237;52.438;13.240;2023-07-22T11:17:28;5.07;;;2.42;;
75645;SDS011;64237;52.438;13.240;2023-07-22T11:19:55;8.40;;;3.10;;
75645;SDS011;64237;52.438;13.240;2023-07-22T11:22:21;8.65;;;3.20;;
75645;SDS011;64237;52.438;13.240;2023-07-22T11:24:46;7.05;;;2.78;;
75645;SDS011;64237;52.438;13.240;2023-07-22T11:27:12;6.90;;;2.67;;
75645;SDS011;64237;52.438;13.240;2023-07-22T11:29:37;6.03;;;2.50;;
75645;SDS011;64237;52.438;13.240;2023-07-22T11:32:03;7.80;;;2.92;;
75645;SDS011;64237;52.438;13.240;2023-07-22T11:34:29;5.85;;;2.47;;
75645;SDS011;64237;52.438;13.240;2023-07-22T11:36:55;6.07;;;2.83;;
75645;SDS011;64237;52.438;13.240;2023-07-22T11:39:22;5.53;;;2.40;;
75645;SDS011;64237;52.438;13.240;2023-07-22T11:41:49;8.57;;;2.88;;
75645;SDS011;64237;52.438;13.240;2023-07-22T11:44:19;7.13;;;2.90;;
75645;SDS011;64237;52.438;13.240;2023-07-22T11:49:12;6.33;;;2.40;;
75645;SDS011;64237;52.438;13.240;2023-07-22T11:51:37;8.15;;;2.75;;
75645;SDS011;64237;52.438;13.240;2023-07-22T11:54:07;6.65;;;2.70;;
75645;SDS011;64237;52.438;13.240;2023-07-22T11:56:33;6.97;;;2.55;;
75645;SDS011;64237;52.438;13.240;2023-07-22T11:58:58;7.38;;;3.08;;
75645;SDS011;64237;52.438;13.240;2023-07-22T12:01:23;9.98;;;3.05;;
75645;SDS011;64237;52.438;13.240;2023-07-22T12:03:57;7.65;;;3.05;;
75645;SDS011;64237;52.438;13.240;2023-07-22T12:06:26;7.95;;;3.00;;
75645;SDS011;64237;52.438;13.240;2023-07-22T12:08:52;6.85;;;3.17;;
75645;SDS011;64237;52.438;13.240;2023-07-22T12:11:18;7.53;;;3.00;;
75645;SDS011;64237;52.438;13.240;2023-07-22T12:13:47;6.90;;;2.92;;
75645;SDS011;64237;52.438;13.240;2023-07-22T12:16:29;6.03;;;2.60;;
75645;SDS011;64237;52.438;13.240;2023-07-22T12:18:54;6.95;;;3.42;;
75645;SDS011;64237;52.438;13.240;2023-07-22T12:21:20;6.95;;;2.92;;
75645;SDS011;64237;52.438;13.240;2023-07-22T12:23:46;6.75;;;2.88;;
75645;SDS011;64237;52.438;13.240;2023-07-22T12:26:11;7.32;;;3.10;;
75645;SDS011;64237;52.438;13.240;2023-07-22T12:28:36;6.87;;;2.93;;
75645;SDS011;64237;52.438;13.240;2023-07-22T12:31:03;6.82;;;2.60;;
75645;SDS011;64237;52.438;13.240;2023-07-22T12:33:28;6.38;;;2.75;;
75645;SDS011;64237;52.438;13.240;2023-07-22T12:35:54;7.28;;;3.00;;
75645;SDS011;64237;52.438;13.240;2023-07-22T12:38:21;5.57;;;2.72;;
75645;SDS011;64237;52.438;13.240;2023-07-22T12:40:47;6.13;;;2.83;;
75645;SDS011;64237;52.438;13.240;2023-07-22T12:43:12;6.25;;;2.95;;
75645;SDS011;64237;52.438;13.240;2023-07-22T12:45:38;6.95;;;3.10;;
75645;SDS011;64237;52.438;13.240;2023-07-22T12:48:03;6.72;;;3.10;;
75645;SDS011;64237;52.438;13.240;2023-07-22T12:50:30;7.35;;;3.20;;
75645;SDS011;64237;52.438;13.240;2023-07-22T12:52:56;7.30;;;2.75;;
75645;SDS011;64237;52.438;13.240;2023-07-22T12:55:22;6.85;;;2.80;;
75645;SDS011;64237;52.438;13.240;2023-07-22T12:57:47;6.70;;;2.90;;
75645;SDS011;64237;52.438;13.240;2023-07-22T13:00:13;6.07;;;2.80;;
75645;SDS011;64237;52.438;13.240;2023-07-22T13:02:38;6.93;;;3.20;;
75645;SDS011;64237;52.438;13.240;2023-07-22T13:05:04;7.50;;;2.90;;
75645;SDS011;64237;52.438;13.240;2023-07-22T13:07:31;6.68;;;2.95;;
75645;SDS011;64237;52.438;13.240;2023-07-22T13:09:56;9.55;;;3.28;;
75645;SDS011;64237;52.438;13.240;2023-07-22T13:12:24;8.88;;;3.00;;
75645;SDS011;64237;52.438;13.240;2023-07-22T13:14:49;7.10;;;3.08;;
75645;SDS011;64237;52.438;13.240;2023-07-22T13:17:14;7.23;;;3.20;;
75645;SDS011;64237;52.438;13.240;2023-07-22T13:19:40;7.10;;;2.90;;
75645;SDS011;64237;52.438;13.240;2023-07-22T13:22:05;7.70;;;3.00;;
75645;SDS011;64237;52.438;13.240;2023-07-22T13:24:30;6.90;;;2.90;;
75645;SDS011;64237;52.438;13.240;2023-07-22T13:26:56;7.05;;;3.20;;
75645;SDS011;64237;52.438;13.240;2023-07-22T13:29:21;9.23;;;3.00;;
75645;SDS011;64237;52.438;13.240;2023-07-22T13:31:46;8.13;;;3.05;;
75645;SDS011;64237;52.438;13.240;2023-07-22T13:34:12;4.72;;;2.50;;
75645;SDS011;64237;52.438;13.240;2023-07-22T13:36:37;6.82;;;2.90;;
75645;SDS011;64237;52.438;13.240;2023-07-22T13:39:03;6.40;;;3.17;;
75645;SDS011;64237;52.438;13.240;2023-07-22T13:41:31;5.47;;;2.60;;
75645;SDS011;64237;52.438;13.240;2023-07-22T13:43:56;6.85;;;2.67;;
75645;SDS011;64237;52.438;13.240;2023-07-22T13:46:22;10.07;;;2.97;;
75645;SDS011;64237;52.438;13.240;2023-07-22T13:48:47;7.22;;;2.80;;
75645;SDS011;64237;52.438;13.240;2023-07-22T13:51:13;6.90;;;2.67;;
75645;SDS011;64237;52.438;13.240;2023-07-22T13:53:38;6.05;;;2.90;;
75645;SDS011;64237;52.438;13.240;2023-07-22T13:56:04;5.78;;;2.70;;
75645;SDS011;64237;52.438;13.240;2023-07-22T13:58:29;5.38;;;2.70;;
75645;SDS011;64237;52.438;13.240;2023-07-22T14:00:55;5.00;;;2.40;;
75645;SDS011;64237;52.438;13.240;2023-07-22T14:03:20;5.78;;;2.72;;
75645;SDS011;64237;52.438;13.240;2023-07-22T14:05:46;6.80;;;3.03;;
75645;SDS011;64237;52.438;13.240;2023-07-22T14:08:12;7.05;;;3.05;;
75645;SDS011;64237;52.438;13.240;2023-07-22T14:10:37;7.10;;;3.00;;
75645;SDS011;64237;52.438;13.240;2023-07-22T14:13:02;7.35;;;2.75;;
75645;SDS011;64237;52.438;13.240;2023-07-22T14:15:28;5.95;;;2.90;;
75645;SDS011;64237;52.438;13.240;2023-07-22T14:17:53;6.57;;;2.90;;
75645;SDS011;64237;52.438;13.240;2023-07-22T14:20:19;4.93;;;2.45;;
75645;SDS011;64237;52.438;13.240;2023-07-22T14:22:44;7.63;;;2.95;;
75645;SDS011;64237;52.438;13.240;2023-07-22T14:25:10;5.63;;;2.55;;
75645;SDS011;64237;52.438;13.240;2023-07-22T14:27:39;7.78;;;3.13;;
75645;SDS011;64237;52.438;13.240;2023-07-22T14:30:05;6.82;;;2.72;;
75645;SDS011;64237;52.438;13.240;2023-07-22T14:32:32;5.90;;;2.80;;
75645;SDS011;64237;52.438;13.240;2023-07-22T14:34:58;6.20;;;2.88;;
75645;SDS011;64237;52.438;13.240;2023-07-22T14:37:23;8.82;;;2.85;;
75645;SDS011;64237;52.438;13.240;2023-07-22T14:39:49;7.25;;;2.60;;
75645;SDS011;64237;52.438;13.240;2023-07-22T14:42:14;4.72;;;2.42;;
75645;SDS011;64237;52.438;13.240;2023-07-22T14:44:40;5.72;;;2.85;;
75645;SDS011;64237;52.438;13.240;2023-07-22T14:47:05;6.47;;;2.92;;
75645;SDS011;64237;52.438;13.240;2023-07-22T14:49:30;5.50;;;2.88;;
75645;SDS011;64237;52.438;13.240;2023-07-22T14:51:56;6.43;;;2.80;;
75645;SDS011;64237;52.438;13.240;2023-07-22T14:54:21;6.43;;;2.90;;